sensor_id;sensor_type;location;lat;lon;timestamp;P1;durP1;ratioP1;P2;durP2;ratioP2
13849;SDS011;6995;52.618;13.488;2023-09-19T00:01:07;24.75;;;23.05;;
13849;SDS011;6995;52.618;13.488;2023-09-19T00:03:34;22.30;;;20.90;;
13849;SDS011;6995;52.618;13.488;2023-09-19T00:06:02;23.73;;;22.23;;
13849;SDS011;6995;52.618;13.488;2023-09-19T00:08:28;24.55;;;23.10;;
13849;SDS011;6995;52.618;13.488;2023-09-19T00:10:54;22.95;;;21.55;;
13849;SDS011;6995;52.618;13.488;2023-09-19T00:13:19;24.67;;;23.30;;
13849;SDS011;6995;52.618;13.488;2023-09-19T00:15:46;23.45;;;22.05;;
13849;SDS011;6995;52.618;13.488;2023-09-19T00:18:16;22.25;;;20.92;;
13849;SDS011;6995;52.618;13.488;2023-09-19T00:20:46;23.70;;;22.10;;
13849;SDS011;6995;52.618;13.488;2023-09-19T00:23:16;23.50;;;22.05;;
13849;SDS011;6995;52.618;13.488;2023-09-19T00:25:42;27.55;;;25.65;;
13849;SDS011;6995;52.618;13.488;2023-09-19T00:28:07;23.05;;;21.67;;
13849;SDS011;6995;52.618;13.488;2023-09-19T00:30:34;22.98;;;21.50;;
13849;SDS011;6995;52.618;13.488;2023-09-19T00:33:00;21.90;;;20.70;;
13849;SDS011;6995;52.618;13.488;2023-09-19T00:35:27;22.17;;;20.73;;
13849;SDS011;6995;52.618;13.488;2023-09-19T00:37:53;23.77;;;22.17;;
13849;SDS011;6995;52.618;13.488;2023-09-19T00:40:18;23.75;;;22.35;;
13849;SDS011;6995;52.618;13.488;2023-09-19T00:42:45;21.38;;;20.17;;
13849;SDS011;6995;52.618;13.488;2023-09-19T00:45:12;23.00;;;21.50;;
13849;SDS011;6995;52.618;13.488;2023-09-19T00:47:39;25.25;;;23.58;;
13849;SDS011;6995;52.618;13.488;2023-09-19T00:50:06;23.02;;;21.70;;
13849;SDS011;6995;52.618;13.488;2023-09-19T00:52:35;24.95;;;23.35;;
13849;SDS011;6995;52.618;13.488;2023-09-19T00:55:04;24.38;;;22.60;;
13849;SDS011;6995;52.618;13.488;2023-09-19T00:57:31;23.60;;;22.20;;
13849;SDS011;6995;52.618;13.488;2023-09-19T00:59:58;23.30;;;21.75;;
13849;SDS011;6995;52.618;13.488;2023-09-19T01:02:25;24.52;;;22.65;;
13849;SDS011;6995;52.618;13.488;2023-09-19T01:04:54;23.65;;;22.25;;
13849;SDS011;6995;52.618;13.488;2023-09-19T01:07:20;25.02;;;23.35;;
13849;SDS011;6995;52.618;13.488;2023-09-19T01:09:48;22.48;;;21.27;;
13849;SDS011;6995;52.618;13.488;2023-09-19T01:12:15;23.00;;;21.63;;
13849;SDS011;6995;52.618;13.488;2023-09-19T01:14:55;23.38;;;22.17;;
13849;SDS011;6995;52.618;13.488;2023-09-19T01:17:34;23.63;;;22.02;;
13849;SDS011;6995;52.618;13.488;2023-09-19T01:20:27;21.73;;;20.23;;
13849;SDS011;6995;52.618;13.488;2023-09-19T01:26:05;22.70;;;21.40;;
13849;SDS011;6995;52.618;13.488;2023-09-19T01:28:52;24.85;;;23.42;;
13849;SDS011;6995;52.618;13.488;2023-09-19T01:31:38;24.58;;;23.27;;
13849;SDS011;6995;52.618;13.488;2023-09-19T01:34:07;21.58;;;20.23;;
13849;SDS011;6995;52.618;13.488;2023-09-19T01:36:37;23.25;;;21.73;;
13849;SDS011;6995;52.618;13.488;2023-09-19T01:39:07;22.02;;;20.60;;
13849;SDS011;6995;52.618;13.488;2023-09-19T01:44:11;23.90;;;22.15;;
13849;SDS011;6995;52.618;13.488;2023-09-19T01:46:43;22.90;;;21.35;;
13849;SDS011;6995;52.618;13.488;2023-09-19T01:49:15;22.35;;;20.80;;
13849;SDS011;6995;52.618;13.488;2023-09-19T01:51:55;20.42;;;19.20;;
13849;SDS011;6995;52.618;13.488;2023-09-19T01:54:36;21.83;;;20.60;;
13849;SDS011;6995;52.618;13.488;2023-09-19T01:57:26;19.90;;;18.80;;
13849;SDS011;6995;52.618;13.488;2023-09-19T01:59:57;26.05;;;24.35;;
13849;SDS011;6995;52.618;13.488;2023-09-19T02:02:36;23.35;;;21.85;;
13849;SDS011;6995;52.618;13.488;2023-09-19T02:05:03;21.65;;;20.00;;
13849;SDS011;6995;52.618;13.488;2023-09-19T02:07:30;21.73;;;20.50;;
13849;SDS011;6995;52.618;13.488;2023-09-19T02:10:00;22.60;;;21.30;;
13849;SDS011;6995;52.618;13.488;2023-09-19T02:12:26;22.52;;;21.33;;
13849;SDS011;6995;52.618;13.488;2023-09-19T02:14:52;22.25;;;20.65;;
13849;SDS011;6995;52.618;13.488;2023-09-19T02:17:18;22.33;;;21.02;;
13849;SDS011;6995;52.618;13.488;2023-09-19T02:19:44;22.52;;;21.33;;
13849;SDS011;6995;52.618;13.488;2023-09-19T02:22:10;24.77;;;23.08;;
13849;SDS011;6995;52.618;13.488;2023-09-19T02:24:36;23.60;;;22.23;;
13849;SDS011;6995;52.618;13.488;2023-09-19T02:27:03;21.83;;;20.73;;
13849;SDS011;6995;52.618;13.488;2023-09-19T02:29:29;22.63;;;21.42;;
13849;SDS011;6995;52.618;13.488;2023-09-19T02:31:55;21.13;;;20.02;;
13849;SDS011;6995;52.618;13.488;2023-09-19T02:34:21;22.17;;;20.77;;
13849;SDS011;6995;52.618;13.488;2023-09-19T02:36:48;21.63;;;20.42;;
13849;SDS011;6995;52.618;13.488;2023-09-19T02:39:13;21.20;;;20.00;;
13849;SDS011;6995;52.618;13.488;2023-09-19T02:41:39;23.30;;;22.10;;
13849;SDS011;6995;52.618;13.488;2023-09-19T02:44:06;21.98;;;20.48;;
13849;SDS011;6995;52.618;13.488;2023-09-19T02:46:33;21.88;;;20.73;;
13849;SDS011;6995;52.618;13.488;2023-09-19T02:49:01;21.35;;;20.25;;
13849;SDS011;6995;52.618;13.488;2023-09-19T02:51:30;24.10;;;22.83;;
13849;SDS011;6995;52.618;13.488;2023-09-19T02:53:56;22.33;;;21.10;;
13849;SDS011;6995;52.618;13.488;2023-09-19T02:56:21;22.15;;;20.90;;
13849;SDS011;6995;52.618;13.488;2023-09-19T02:58:47;25.05;;;23.63;;
13849;SDS011;6995;52.618;13.488;2023-09-19T03:01:13;26.55;;;24.88;;
13849;SDS011;6995;52.618;13.488;2023-09-19T03:03:39;24.05;;;22.75;;
13849;SDS011;6995;52.618;13.488;2023-09-19T03:06:06;22.80;;;21.42;;
13849;SDS011;6995;52.618;13.488;2023-09-19T03:08:34;24.63;;;23.13;;
13849;SDS011;6995;52.618;13.488;2023-09-19T03:11:03;24.13;;;22.65;;
13849;SDS011;6995;52.618;13.488;2023-09-19T03:13:31;22.60;;;21.40;;
13849;SDS011;6995;52.618;13.488;2023-09-19T03:15:57;25.77;;;24.38;;
13849;SDS011;6995;52.618;13.488;2023-09-19T03:18:26;23.77;;;22.15;;
13849;SDS011;6995;52.618;13.488;2023-09-19T03:20:53;26.05;;;24.42;;
13849;SDS011;6995;52.618;13.488;2023-09-19T03:23:20;23.20;;;21.90;;
13849;SDS011;6995;52.618;13.488;2023-09-19T03:25:45;25.35;;;23.70;;
13849;SDS011;6995;52.618;13.488;2023-09-19T03:28:12;25.23;;;23.92;;
13849;SDS011;6995;52.618;13.488;2023-09-19T03:30:40;24.35;;;23.00;;
13849;SDS011;6995;52.618;13.488;2023-09-19T03:33:06;21.60;;;20.42;;
13849;SDS011;6995;52.618;13.488;2023-09-19T03:35:31;22.77;;;21.33;;
13849;SDS011;6995;52.618;13.488;2023-09-19T03:37:57;26.00;;;24.50;;
13849;SDS011;6995;52.618;13.488;2023-09-19T03:40:23;23.77;;;22.40;;
13849;SDS011;6995;52.618;13.488;2023-09-19T03:42:50;21.00;;;19.90;;
13849;SDS011;6995;52.618;13.488;2023-09-19T03:45:16;21.25;;;20.05;;
13849;SDS011;6995;52.618;13.488;2023-09-19T03:47:43;23.70;;;22.30;;
13849;SDS011;6995;52.618;13.488;2023-09-19T03:50:12;25.30;;;24.05;;
13849;SDS011;6995;52.618;13.488;2023-09-19T03:52:40;21.88;;;20.73;;
13849;SDS011;6995;52.618;13.488;2023-09-19T03:55:06;22.00;;;20.90;;
13849;SDS011;6995;52.618;13.488;2023-09-19T03:57:31;21.27;;;20.17;;
13849;SDS011;6995;52.618;13.488;2023-09-19T03:59:57;22.73;;;21.50;;
13849;SDS011;6995;52.618;13.488;2023-09-19T04:02:23;23.77;;;22.42;;
13849;SDS011;6995;52.618;13.488;2023-09-19T04:04:49;23.52;;;22.23;;
13849;SDS011;6995;52.618;13.488;2023-09-19T04:07:16;23.98;;;22.75;;
13849;SDS011;6995;52.618;13.488;2023-09-19T04:09:42;24.27;;;22.70;;
13849;SDS011;6995;52.618;13.488;2023-09-19T04:12:07;24.17;;;22.85;;
13849;SDS011;6995;52.618;13.488;2023-09-19T04:14:36;23.88;;;22.73;;
13849;SDS011;6995;52.618;13.488;2023-09-19T04:17:02;22.70;;;21.45;;
13849;SDS011;6995;52.618;13.488;2023-09-19T04:19:28;25.35;;;23.70;;
13849;SDS011;6995;52.618;13.488;2023-09-19T04:21:54;24.90;;;23.33;;
13849;SDS011;6995;52.618;13.488;2023-09-19T04:24:19;22.58;;;21.48;;
13849;SDS011;6995;52.618;13.488;2023-09-19T04:26:45;24.80;;;23.30;;
13849;SDS011;6995;52.618;13.488;2023-09-19T04:29:11;24.30;;;23.00;;
13849;SDS011;6995;52.618;13.488;2023-09-19T04:31:39;25.90;;;24.25;;
13849;SDS011;6995;52.618;13.488;2023-09-19T04:34:05;23.33;;;22.02;;
13849;SDS011;6995;52.618;13.488;2023-09-19T04:36:31;25.95;;;24.55;;
13849;SDS011;6995;52.618;13.488;2023-09-19T04:38:57;26.80;;;25.30;;
13849;SDS011;6995;52.618;13.488;2023-09-19T04:41:22;23.13;;;21.88;;
13849;SDS011;6995;52.618;13.488;2023-09-19T04:43:49;23.65;;;22.42;;
13849;SDS011;6995;52.618;13.488;2023-09-19T04:46:15;26.27;;;25.00;;
13849;SDS011;6995;52.618;13.488;2023-09-19T04:48:42;26.13;;;24.67;;
13849;SDS011;6995;52.618;13.488;2023-09-19T04:51:08;25.10;;;23.77;;
13849;SDS011;6995;52.618;13.488;2023-09-19T04:53:35;23.75;;;22.45;;
13849;SDS011;6995;52.618;13.488;2023-09-19T04:56:01;29.67;;;27.98;;
13849;SDS011;6995;52.618;13.488;2023-09-19T04:58:28;24.13;;;22.80;;
13849;SDS011;6995;52.618;13.488;2023-09-19T05:00:54;28.63;;;26.92;;
13849;SDS011;6995;52.618;13.488;2023-09-19T05:03:19;27.60;;;25.92;;
13849;SDS011;6995;52.618;13.488;2023-09-19T05:05:46;25.48;;;24.08;;
13849;SDS011;6995;52.618;13.488;2023-09-19T05:08:11;25.23;;;23.77;;
13849;SDS011;6995;52.618;13.488;2023-09-19T05:10:39;28.05;;;26.42;;
13849;SDS011;6995;52.618;13.488;2023-09-19T05:13:06;26.65;;;25.05;;
13849;SDS011;6995;52.618;13.488;2023-09-19T05:15:34;26.55;;;25.02;;
13849;SDS011;6995;52.618;13.488;2023-09-19T05:18:00;27.85;;;26.15;;
13849;SDS011;6995;52.618;13.488;2023-09-19T05:20:26;26.80;;;25.13;;
13849;SDS011;6995;52.618;13.488;2023-09-19T05:23:06;26.08;;;24.52;;
13849;SDS011;6995;52.618;13.488;2023-09-19T05:25:39;26.55;;;24.90;;
13849;SDS011;6995;52.618;13.488;2023-09-19T05:28:05;25.08;;;23.48;;
13849;SDS011;6995;52.618;13.488;2023-09-19T05:30:32;26.10;;;24.67;;
13849;SDS011;6995;52.618;13.488;2023-09-19T05:32:58;27.85;;;26.05;;
13849;SDS011;6995;52.618;13.488;2023-09-19T05:35:24;26.25;;;24.65;;
13849;SDS011;6995;52.618;13.488;2023-09-19T05:37:51;27.08;;;25.58;;
13849;SDS011;6995;52.618;13.488;2023-09-19T05:40:18;29.52;;;27.40;;
13849;SDS011;6995;52.618;13.488;2023-09-19T05:42:44;26.80;;;24.83;;
13849;SDS011;6995;52.618;13.488;2023-09-19T05:45:11;31.25;;;29.20;;
13849;SDS011;6995;52.618;13.488;2023-09-19T05:47:43;28.02;;;26.00;;
13849;SDS011;6995;52.618;13.488;2023-09-19T05:50:11;27.63;;;25.92;;
13849;SDS011;6995;52.618;13.488;2023-09-19T05:52:36;26.73;;;24.92;;
13849;SDS011;6995;52.618;13.488;2023-09-19T05:55:04;26.15;;;24.55;;
13849;SDS011;6995;52.618;13.488;2023-09-19T05:57:31;25.88;;;24.30;;
13849;SDS011;6995;52.618;13.488;2023-09-19T05:59:57;27.85;;;26.15;;
13849;SDS011;6995;52.618;13.488;2023-09-19T06:02:23;26.63;;;25.15;;
13849;SDS011;6995;52.618;13.488;2023-09-19T06:04:52;27.83;;;26.30;;
13849;SDS011;6995;52.618;13.488;2023-09-19T06:07:18;27.42;;;26.02;;
13849;SDS011;6995;52.618;13.488;2023-09-19T06:09:43;28.60;;;26.77;;
13849;SDS011;6995;52.618;13.488;2023-09-19T06:12:09;28.60;;;26.83;;
13849;SDS011;6995;52.618;13.488;2023-09-19T06:14:34;30.45;;;28.35;;
13849;SDS011;6995;52.618;13.488;2023-09-19T06:17:00;28.05;;;26.20;;
13849;SDS011;6995;52.618;13.488;2023-09-19T06:19:26;26.45;;;24.55;;
13849;SDS011;6995;52.618;13.488;2023-09-19T06:21:52;26.02;;;24.40;;
13849;SDS011;6995;52.618;13.488;2023-09-19T06:24:19;26.05;;;24.55;;
13849;SDS011;6995;52.618;13.488;2023-09-19T06:26:44;29.27;;;27.58;;
13849;SDS011;6995;52.618;13.488;2023-09-19T06:29:10;29.35;;;27.55;;
13849;SDS011;6995;52.618;13.488;2023-09-19T06:31:36;26.52;;;24.70;;
13849;SDS011;6995;52.618;13.488;2023-09-19T06:34:04;24.95;;;23.42;;
13849;SDS011;6995;52.618;13.488;2023-09-19T06:36:29;25.35;;;23.83;;
13849;SDS011;6995;52.618;13.488;2023-09-19T06:38:55;26.48;;;24.88;;
13849;SDS011;6995;52.618;13.488;2023-09-19T06:41:21;26.88;;;25.25;;
13849;SDS011;6995;52.618;13.488;2023-09-19T06:43:49;25.10;;;23.15;;
13849;SDS011;6995;52.618;13.488;2023-09-19T06:46:18;28.52;;;26.85;;
13849;SDS011;6995;52.618;13.488;2023-09-19T06:48:44;26.50;;;24.83;;
13849;SDS011;6995;52.618;13.488;2023-09-19T06:51:12;32.05;;;30.15;;
13849;SDS011;6995;52.618;13.488;2023-09-19T06:53:40;31.63;;;29.80;;
13849;SDS011;6995;52.618;13.488;2023-09-19T06:56:06;37.15;;;35.00;;
13849;SDS011;6995;52.618;13.488;2023-09-19T06:58:32;25.35;;;23.75;;
13849;SDS011;6995;52.618;13.488;2023-09-19T07:00:57;29.15;;;27.33;;
13849;SDS011;6995;52.618;13.488;2023-09-19T07:03:23;29.10;;;27.23;;
13849;SDS011;6995;52.618;13.488;2023-09-19T07:05:51;25.73;;;24.33;;
13849;SDS011;6995;52.618;13.488;2023-09-19T07:08:17;24.83;;;23.55;;
13849;SDS011;6995;52.618;13.488;2023-09-19T07:10:45;24.63;;;22.95;;
13849;SDS011;6995;52.618;13.488;2023-09-19T07:13:13;21.75;;;20.30;;
13849;SDS011;6995;52.618;13.488;2023-09-19T07:15:42;22.52;;;21.05;;
13849;SDS011;6995;52.618;13.488;2023-09-19T07:18:17;22.95;;;21.58;;
13849;SDS011;6995;52.618;13.488;2023-09-19T07:20:43;21.88;;;20.50;;
13849;SDS011;6995;52.618;13.488;2023-09-19T07:23:17;20.67;;;19.58;;
13849;SDS011;6995;52.618;13.488;2023-09-19T07:25:43;25.70;;;23.75;;
13849;SDS011;6995;52.618;13.488;2023-09-19T07:28:09;21.90;;;20.50;;
13849;SDS011;6995;52.618;13.488;2023-09-19T07:30:36;20.92;;;19.75;;
13849;SDS011;6995;52.618;13.488;2023-09-19T07:33:02;23.08;;;21.48;;
13849;SDS011;6995;52.618;13.488;2023-09-19T07:35:30;22.50;;;21.02;;
13849;SDS011;6995;52.618;13.488;2023-09-19T07:37:56;23.77;;;22.23;;
13849;SDS011;6995;52.618;13.488;2023-09-19T07:40:23;22.35;;;21.10;;
13849;SDS011;6995;52.618;13.488;2023-09-19T07:42:54;25.75;;;24.05;;
13849;SDS011;6995;52.618;13.488;2023-09-19T07:45:20;23.20;;;21.92;;
13849;SDS011;6995;52.618;13.488;2023-09-19T07:47:47;23.67;;;22.42;;
13849;SDS011;6995;52.618;13.488;2023-09-19T07:50:13;22.65;;;21.23;;
13849;SDS011;6995;52.618;13.488;2023-09-19T07:52:41;25.13;;;23.67;;
13849;SDS011;6995;52.618;13.488;2023-09-19T07:55:08;24.25;;;22.85;;
13849;SDS011;6995;52.618;13.488;2023-09-19T07:57:34;24.83;;;23.38;;
13849;SDS011;6995;52.618;13.488;2023-09-19T08:00:01;25.98;;;24.58;;
13849;SDS011;6995;52.618;13.488;2023-09-19T08:02:29;27.63;;;25.83;;
13849;SDS011;6995;52.618;13.488;2023-09-19T08:04:59;26.23;;;24.67;;
13849;SDS011;6995;52.618;13.488;2023-09-19T08:07:25;23.70;;;22.30;;
13849;SDS011;6995;52.618;13.488;2023-09-19T08:09:51;23.30;;;21.95;;
13849;SDS011;6995;52.618;13.488;2023-09-19T08:12:16;25.73;;;24.00;;
13849;SDS011;6995;52.618;13.488;2023-09-19T08:14:42;26.63;;;24.33;;
13849;SDS011;6995;52.618;13.488;2023-09-19T08:17:08;24.08;;;22.67;;
13849;SDS011;6995;52.618;13.488;2023-09-19T08:19:34;22.02;;;20.52;;
13849;SDS011;6995;52.618;13.488;2023-09-19T08:22:01;28.40;;;26.45;;
13849;SDS011;6995;52.618;13.488;2023-09-19T08:24:28;22.42;;;20.75;;
13849;SDS011;6995;52.618;13.488;2023-09-19T08:26:55;23.60;;;22.13;;
13849;SDS011;6995;52.618;13.488;2023-09-19T08:29:24;21.67;;;20.17;;
13849;SDS011;6995;52.618;13.488;2023-09-19T08:31:58;23.17;;;21.60;;
13849;SDS011;6995;52.618;13.488;2023-09-19T08:34:24;24.08;;;22.48;;
13849;SDS011;6995;52.618;13.488;2023-09-19T08:36:51;25.00;;;22.92;;
13849;SDS011;6995;52.618;13.488;2023-09-19T08:39:18;23.85;;;22.25;;
13849;SDS011;6995;52.618;13.488;2023-09-19T08:41:44;22.27;;;20.67;;
13849;SDS011;6995;52.618;13.488;2023-09-19T08:44:10;21.60;;;20.27;;
13849;SDS011;6995;52.618;13.488;2023-09-19T08:46:35;22.08;;;20.42;;
13849;SDS011;6995;52.618;13.488;2023-09-19T08:49:41;25.08;;;23.25;;
13849;SDS011;6995;52.618;13.488;2023-09-19T08:52:08;25.95;;;23.92;;
13849;SDS011;6995;52.618;13.488;2023-09-19T08:54:58;23.90;;;22.23;;
13849;SDS011;6995;52.618;13.488;2023-09-19T08:57:28;23.23;;;21.58;;
13849;SDS011;6995;52.618;13.488;2023-09-19T08:59:58;23.92;;;22.15;;
13849;SDS011;6995;52.618;13.488;2023-09-19T09:02:25;21.98;;;20.58;;
13849;SDS011;6995;52.618;13.488;2023-09-19T09:04:52;24.60;;;22.90;;
13849;SDS011;6995;52.618;13.488;2023-09-19T09:07:19;21.10;;;19.60;;
13849;SDS011;6995;52.618;13.488;2023-09-19T09:09:46;22.60;;;21.10;;
13849;SDS011;6995;52.618;13.488;2023-09-19T09:12:13;23.50;;;22.00;;
13849;SDS011;6995;52.618;13.488;2023-09-19T09:14:40;23.30;;;21.65;;
13849;SDS011;6995;52.618;13.488;2023-09-19T09:17:14;22.58;;;21.13;;
13849;SDS011;6995;52.618;13.488;2023-09-19T09:19:41;22.75;;;21.13;;
13849;SDS011;6995;52.618;13.488;2023-09-19T09:22:08;22.90;;;21.02;;
13849;SDS011;6995;52.618;13.488;2023-09-19T09:24:35;24.10;;;22.60;;
13849;SDS011;6995;52.618;13.488;2023-09-19T09:27:06;24.58;;;22.75;;
13849;SDS011;6995;52.618;13.488;2023-09-19T09:29:43;22.33;;;20.80;;
13849;SDS011;6995;52.618;13.488;2023-09-19T09:32:24;23.80;;;22.48;;
13849;SDS011;6995;52.618;13.488;2023-09-19T09:35:01;25.02;;;23.50;;
13849;SDS011;6995;52.618;13.488;2023-09-19T09:37:34;24.73;;;23.23;;
13849;SDS011;6995;52.618;13.488;2023-09-19T09:40:03;28.92;;;26.67;;
13849;SDS011;6995;52.618;13.488;2023-09-19T09:42:42;25.20;;;23.60;;
13849;SDS011;6995;52.618;13.488;2023-09-19T09:45:15;28.45;;;26.55;;
13849;SDS011;6995;52.618;13.488;2023-09-19T09:48:02;29.17;;;26.92;;
13849;SDS011;6995;52.618;13.488;2023-09-19T09:50:29;25.27;;;23.75;;
13849;SDS011;6995;52.618;13.488;2023-09-19T09:53:22;26.40;;;24.55;;
13849;SDS011;6995;52.618;13.488;2023-09-19T09:56:10;25.17;;;23.50;;
13849;SDS011;6995;52.618;13.488;2023-09-19T09:58:50;25.23;;;23.67;;
13849;SDS011;6995;52.618;13.488;2023-09-19T10:01:19;27.20;;;25.63;;
13849;SDS011;6995;52.618;13.488;2023-09-19T10:03:52;26.25;;;24.45;;
13849;SDS011;6995;52.618;13.488;2023-09-19T10:06:23;26.38;;;24.75;;
13849;SDS011;6995;52.618;13.488;2023-09-19T10:09:09;26.70;;;24.77;;
13849;SDS011;6995;52.618;13.488;2023-09-19T10:12:03;23.90;;;22.33;;
13849;SDS011;6995;52.618;13.488;2023-09-19T10:14:33;28.25;;;26.33;;
13849;SDS011;6995;52.618;13.488;2023-09-19T10:17:04;25.83;;;24.20;;
13849;SDS011;6995;52.618;13.488;2023-09-19T10:19:37;27.75;;;25.60;;
13849;SDS011;6995;52.618;13.488;2023-09-19T10:22:11;27.00;;;25.52;;
13849;SDS011;6995;52.618;13.488;2023-09-19T10:24:39;23.90;;;22.35;;
13849;SDS011;6995;52.618;13.488;2023-09-19T10:27:06;23.85;;;22.30;;
13849;SDS011;6995;52.618;13.488;2023-09-19T10:29:35;26.67;;;24.77;;
13849;SDS011;6995;52.618;13.488;2023-09-19T10:32:05;24.30;;;22.60;;
13849;SDS011;6995;52.618;13.488;2023-09-19T10:34:35;23.58;;;22.08;;
13849;SDS011;6995;52.618;13.488;2023-09-19T10:37:01;21.75;;;20.55;;
13849;SDS011;6995;52.618;13.488;2023-09-19T10:39:31;24.98;;;23.02;;
13849;SDS011;6995;52.618;13.488;2023-09-19T10:41:57;25.55;;;23.77;;
13849;SDS011;6995;52.618;13.488;2023-09-19T10:44:31;24.13;;;22.17;;
13849;SDS011;6995;52.618;13.488;2023-09-19T10:46:58;26.15;;;24.25;;
13849;SDS011;6995;52.618;13.488;2023-09-19T10:49:24;24.52;;;22.92;;
13849;SDS011;6995;52.618;13.488;2023-09-19T10:51:52;27.70;;;25.60;;
13849;SDS011;6995;52.618;13.488;2023-09-19T10:54:23;29.00;;;27.20;;
13849;SDS011;6995;52.618;13.488;2023-09-19T10:56:53;27.35;;;25.15;;
13849;SDS011;6995;52.618;13.488;2023-09-19T10:59:19;23.92;;;22.08;;
13849;SDS011;6995;52.618;13.488;2023-09-19T11:07:10;25.48;;;23.80;;
13849;SDS011;6995;52.618;13.488;2023-09-19T11:09:50;25.05;;;22.92;;
13849;SDS011;6995;52.618;13.488;2023-09-19T11:14:57;24.10;;;22.45;;
13849;SDS011;6995;52.618;13.488;2023-09-19T11:17:36;22.45;;;20.95;;
13849;SDS011;6995;52.618;13.488;2023-09-19T11:30:40;20.85;;;19.20;;
13849;SDS011;6995;52.618;13.488;2023-09-19T11:43:46;23.08;;;21.20;;
13849;SDS011;6995;52.618;13.488;2023-09-19T11:46:12;22.00;;;20.67;;
13849;SDS011;6995;52.618;13.488;2023-09-19T11:48:41;20.13;;;18.65;;
13849;SDS011;6995;52.618;13.488;2023-09-19T11:51:12;22.30;;;20.83;;
13849;SDS011;6995;52.618;13.488;2023-09-19T11:53:51;21.65;;;19.67;;
13849;SDS011;6995;52.618;13.488;2023-09-19T11:56:21;21.08;;;19.58;;
13849;SDS011;6995;52.618;13.488;2023-09-19T11:58:53;19.52;;;18.45;;
13849;SDS011;6995;52.618;13.488;2023-09-19T12:03:57;21.20;;;19.80;;
13849;SDS011;6995;52.618;13.488;2023-09-19T12:06:25;20.67;;;19.30;;
13849;SDS011;6995;52.618;13.488;2023-09-19T12:08:52;21.83;;;20.08;;
13849;SDS011;6995;52.618;13.488;2023-09-19T12:11:27;21.17;;;19.73;;
13849;SDS011;6995;52.618;13.488;2023-09-19T12:13:58;21.67;;;20.27;;
13849;SDS011;6995;52.618;13.488;2023-09-19T12:16:26;21.80;;;20.40;;
13849;SDS011;6995;52.618;13.488;2023-09-19T12:18:55;20.27;;;18.88;;
13849;SDS011;6995;52.618;13.488;2023-09-19T12:21:23;24.00;;;21.98;;
13849;SDS011;6995;52.618;13.488;2023-09-19T12:24:03;20.75;;;19.50;;
13849;SDS011;6995;52.618;13.488;2023-09-19T12:26:36;22.17;;;20.67;;
13849;SDS011;6995;52.618;13.488;2023-09-19T12:29:09;21.92;;;20.35;;
13849;SDS011;6995;52.618;13.488;2023-09-19T12:31:58;21.02;;;19.60;;
13849;SDS011;6995;52.618;13.488;2023-09-19T12:34:27;21.05;;;19.23;;
13849;SDS011;6995;52.618;13.488;2023-09-19T12:37:05;21.75;;;20.25;;
13849;SDS011;6995;52.618;13.488;2023-09-19T12:39:44;23.60;;;21.90;;
13849;SDS011;6995;52.618;13.488;2023-09-19T12:42:21;22.92;;;21.40;;
13849;SDS011;6995;52.618;13.488;2023-09-19T12:44:48;22.67;;;21.08;;
13849;SDS011;6995;52.618;13.488;2023-09-19T12:47:21;22.10;;;20.48;;
13849;SDS011;6995;52.618;13.488;2023-09-19T12:52:48;21.50;;;20.13;;
13849;SDS011;6995;52.618;13.488;2023-09-19T12:55:27;22.20;;;20.67;;
13849;SDS011;6995;52.618;13.488;2023-09-19T13:00:41;23.02;;;21.70;;
13849;SDS011;6995;52.618;13.488;2023-09-19T13:11:11;22.52;;;20.95;;
13849;SDS011;6995;52.618;13.488;2023-09-19T13:13:47;18.73;;;17.80;;
13849;SDS011;6995;52.618;13.488;2023-09-19T13:16:19;21.08;;;19.55;;
13849;SDS011;6995;52.618;13.488;2023-09-19T13:18:51;21.80;;;19.77;;
13849;SDS011;6995;52.618;13.488;2023-09-19T13:21:28;20.40;;;19.23;;
13849;SDS011;6995;52.618;13.488;2023-09-19T13:24:17;20.13;;;18.88;;
13849;SDS011;6995;52.618;13.488;2023-09-19T13:26:45;20.52;;;19.42;;
13849;SDS011;6995;52.618;13.488;2023-09-19T13:29:11;22.92;;;21.55;;
13849;SDS011;6995;52.618;13.488;2023-09-19T13:31:37;21.27;;;19.98;;
13849;SDS011;6995;52.618;13.488;2023-09-19T13:34:06;21.92;;;20.67;;
13849;SDS011;6995;52.618;13.488;2023-09-19T13:36:32;21.15;;;19.58;;
13849;SDS011;6995;52.618;13.488;2023-09-19T13:38:58;21.63;;;20.20;;
13849;SDS011;6995;52.618;13.488;2023-09-19T13:41:25;20.17;;;19.02;;
13849;SDS011;6995;52.618;13.488;2023-09-19T13:43:51;21.65;;;20.02;;
13849;SDS011;6995;52.618;13.488;2023-09-19T13:46:17;21.52;;;20.23;;
13849;SDS011;6995;52.618;13.488;2023-09-19T13:48:50;22.33;;;20.73;;
13849;SDS011;6995;52.618;13.488;2023-09-19T13:51:17;21.25;;;19.92;;
13849;SDS011;6995;52.618;13.488;2023-09-19T13:53:44;21.42;;;19.98;;
13849;SDS011;6995;52.618;13.488;2023-09-19T13:56:09;20.02;;;18.52;;
13849;SDS011;6995;52.618;13.488;2023-09-19T13:58:36;21.58;;;19.77;;
13849;SDS011;6995;52.618;13.488;2023-09-19T14:01:02;22.15;;;20.83;;
13849;SDS011;6995;52.618;13.488;2023-09-19T14:03:28;22.48;;;20.63;;
13849;SDS011;6995;52.618;13.488;2023-09-19T14:05:54;21.00;;;19.50;;
13849;SDS011;6995;52.618;13.488;2023-09-19T14:08:19;23.42;;;21.83;;
13849;SDS011;6995;52.618;13.488;2023-09-19T14:10:45;21.50;;;20.05;;
13849;SDS011;6995;52.618;13.488;2023-09-19T14:13:11;22.00;;;20.60;;
13849;SDS011;6995;52.618;13.488;2023-09-19T14:15:38;20.50;;;19.15;;
13849;SDS011;6995;52.618;13.488;2023-09-19T14:18:04;23.25;;;21.80;;
13849;SDS011;6995;52.618;13.488;2023-09-19T14:20:30;21.83;;;20.13;;
13849;SDS011;6995;52.618;13.488;2023-09-19T14:22:56;23.60;;;22.00;;
13849;SDS011;6995;52.618;13.488;2023-09-19T14:25:24;24.55;;;22.98;;
13849;SDS011;6995;52.618;13.488;2023-09-19T14:27:50;22.77;;;21.38;;
13849;SDS011;6995;52.618;13.488;2023-09-19T14:30:16;21.70;;;20.42;;
13849;SDS011;6995;52.618;13.488;2023-09-19T14:32:42;22.77;;;21.42;;
13849;SDS011;6995;52.618;13.488;2023-09-19T14:35:08;20.60;;;19.42;;
13849;SDS011;6995;52.618;13.488;2023-09-19T14:37:38;20.60;;;19.20;;
13849;SDS011;6995;52.618;13.488;2023-09-19T14:40:04;21.45;;;20.25;;
13849;SDS011;6995;52.618;13.488;2023-09-19T14:42:33;21.77;;;20.10;;
13849;SDS011;6995;52.618;13.488;2023-09-19T14:45:01;20.67;;;19.55;;
13849;SDS011;6995;52.618;13.488;2023-09-19T14:47:27;23.63;;;22.08;;
13849;SDS011;6995;52.618;13.488;2023-09-19T14:49:53;22.23;;;20.70;;
13849;SDS011;6995;52.618;13.488;2023-09-19T14:52:19;19.77;;;18.58;;
13849;SDS011;6995;52.618;13.488;2023-09-19T14:54:44;21.58;;;20.25;;
13849;SDS011;6995;52.618;13.488;2023-09-19T14:57:10;24.90;;;22.95;;
13849;SDS011;6995;52.618;13.488;2023-09-19T14:59:35;20.88;;;19.27;;
13849;SDS011;6995;52.618;13.488;2023-09-19T15:02:04;21.15;;;19.75;;
13849;SDS011;6995;52.618;13.488;2023-09-19T15:04:30;23.35;;;21.70;;
13849;SDS011;6995;52.618;13.488;2023-09-19T15:06:56;22.73;;;21.02;;
13849;SDS011;6995;52.618;13.488;2023-09-19T15:09:22;22.08;;;20.35;;
13849;SDS011;6995;52.618;13.488;2023-09-19T15:11:51;22.25;;;20.42;;
13849;SDS011;6995;52.618;13.488;2023-09-19T15:14:17;19.75;;;18.30;;
13849;SDS011;6995;52.618;13.488;2023-09-19T15:16:43;22.10;;;20.50;;
13849;SDS011;6995;52.618;13.488;2023-09-19T15:19:09;20.38;;;18.88;;
13849;SDS011;6995;52.618;13.488;2023-09-19T15:21:35;19.83;;;18.52;;